Time;durP1;ratioP1;P1;durP2;ratioP2;P2;SDS_P1;SDS_P2;PMS_P1;PMS_P2;Temp;Humidity;BMP_temperature;BMP_pressure;BME280_temperature;BME280_humidity;BME280_pressure;Samples;Min_cycle;Max_cycle;Signal;HPM_P1;HPM_P2
2021/08/15 00:01:43;;;;;;;10.80;9.68;;;30.20;99.90;;;;;;5042715;28;20284;-93
2021/08/15 00:04:17;;;;;;;12.65;10.18;;;30.40;99.90;;;;;;5044649;28;20296;-92
2021/08/15 00:06:55;;;;;;;10.48;9.43;;;30.30;99.90;;;;;;5052219;28;20208;-93
2021/08/15 00:09:34;;;;;;;10.07;8.73;;;30.40;99.90;;;;;;5028619;28;20581;-93
2021/08/15 00:12:09;;;;;;;10.68;9.27;;;30.50;99.90;;;;;;5043762;28;20231;-92
2021/08/15 00:14:42;;;;;;;10.20;9.10;;;30.10;99.90;;;;;;5049297;28;20220;-93
2021/08/15 00:17:14;;;;;;;10.35;9.35;;;29.90;99.90;;;;;;5032332;28;20243;-93
2021/08/15 00:19:48;;;;;;;10.20;8.95;;;30.40;99.90;;;;;;5030488;28;20210;-93
2021/08/15 00:22:19;;;;;;;10.18;9.07;;;30.50;99.90;;;;;;5026911;28;20256;-92
2021/08/15 00:24:51;;;;;;;10.50;9.07;;;30.40;99.90;;;;;;5026090;28;20389;-92
2021/08/15 00:27:24;;;;;;;12.07;10.10;;;30.40;99.90;;;;;;5024954;28;20213;-93
2021/08/15 00:29:56;;;;;;;11.85;10.75;;;30.50;99.90;;;;;;5021700;28;20206;-92
2021/08/15 00:32:28;;;;;;;11.32;10.20;;;30.30;99.90;;;;;;5037626;28;20224;-93
2021/08/15 00:35:04;;;;;;;13.68;12.18;;;30.50;99.90;;;;;;5040206;28;20247;-92
2021/08/15 00:37:37;;;;;;;12.63;9.98;;;30.30;99.90;;;;;;5021467;28;20212;-92
2021/08/15 00:40:11;;;;;;;10.43;9.52;;;30.40;99.90;;;;;;5043000;28;20356;-94
2021/08/15 00:42:43;;;;;;;12.57;10.57;;;30.50;99.90;;;;;;5045589;28;20268;-93
2021/08/15 00:45:15;;;;;;;13.10;11.52;;;30.50;99.90;;;;;;5046613;28;20282;-93
2021/08/15 00:47:47;;;;;;;12.50;11.18;;;30.20;99.90;;;;;;5037309;28;20209;-92
2021/08/15 00:50:21;;;;;;;12.02;10.82;;;30.30;99.90;;;;;;5036184;28;20280;-93
2021/08/15 00:52:54;;;;;;;13.20;11.10;;;30.30;99.90;;;;;;5036807;28;20205;-92
2021/08/15 00:55:25;;;;;;;12.00;11.00;;;29.90;99.90;;;;;;5036878;28;20324;-93
2021/08/15 00:57:57;;;;;;;13.07;11.68;;;29.90;99.90;;;;;;5036194;28;20237;-92
2021/08/15 01:00:28;;;;;;;12.18;10.95;;;29.90;99.90;;;;;;5035909;28;20255;-93
2021/08/15 01:03:01;;;;;;;12.63;11.43;;;29.80;99.90;;;;;;5035833;28;20288;-92
2021/08/15 01:05:36;;;;;;;12.77;11.43;;;30.00;99.90;;;;;;5047292;28;20212;-93
2021/08/15 01:08:08;;;;;;;15.37;11.57;;;30.30;99.90;;;;;;5026173;28;20208;-91
2021/08/15 01:10:40;;;;;;;12.63;11.48;;;30.40;99.90;;;;;;5041700;28;20213;-92
2021/08/15 01:13:12;;;;;;;12.35;11.10;;;30.40;99.90;;;;;;5039745;28;20209;-92
2021/08/15 01:15:44;;;;;;;12.77;11.48;;;30.40;99.90;;;;;;5037095;28;20228;-93
2021/08/15 01:18:23;;;;;;;13.75;11.75;;;30.60;99.90;;;;;;5026209;28;20212;-92
2021/08/15 01:21:01;;;;;;;12.45;11.35;;;30.50;99.90;;;;;;5018396;28;20308;-93
2021/08/15 01:23:34;;;;;;;13.20;11.45;;;30.30;99.90;;;;;;5020576;28;20217;-91
2021/08/15 01:26:12;;;;;;;15.57;11.27;;;30.60;99.90;;;;;;5026214;28;20219;-91
2021/08/15 01:28:49;;;;;;;12.85;11.55;;;30.50;99.90;;;;;;5013419;28;20272;-91
2021/08/15 01:31:21;;;;;;;13.20;11.82;;;30.60;99.90;;;;;;5025575;28;20244;-92
2021/08/15 01:33:53;;;;;;;15.10;13.70;;;30.40;99.90;;;;;;5029134;28;20210;-92
2021/08/15 01:36:25;;;;;;;13.90;12.27;;;30.20;99.90;;;;;;5032793;28;20233;-92
2021/08/15 01:38:57;;;;;;;13.50;11.95;;;30.20;99.90;;;;;;5032258;28;20213;-91
2021/08/15 01:41:28;;;;;;;14.00;12.70;;;29.90;99.90;;;;;;5031490;28;20228;-91
2021/08/15 01:44:03;;;;;;;13.73;12.43;;;30.00;99.90;;;;;;5033176;28;20202;-91
2021/08/15 01:46:36;;;;;;;14.38;13.07;;;30.10;99.90;;;;;;5032281;28;20329;-92
2021/08/15 01:49:09;;;;;;;15.73;12.87;;;30.10;99.90;;;;;;5033560;28;20222;-91
2021/08/15 01:51:40;;;;;;;14.55;13.15;;;29.90;99.90;;;;;;5028254;28;20689;-92
2021/08/15 01:54:12;;;;;;;14.53;13.13;;;29.80;99.90;;;;;;5030714;28;20213;-92
2021/08/15 01:56:48;;;;;;;15.60;14.10;;;29.70;99.90;;;;;;5032245;28;20232;-92
2021/08/15 02:26:24;;;;;;;16.27;14.70;;;27.60;99.90;;;;;;5071135;28;20305;-93
2021/08/15 02:28:56;;;;;;;18.00;14.90;;;27.60;99.90;;;;;;5040609;28;20211;-93
2021/08/15 02:31:27;;;;;;;16.07;14.47;;;27.40;99.90;;;;;;5044453;28;20192;-93
2021/08/15 02:33:58;;;;;;;16.40;14.87;;;27.30;99.90;;;;;;5062488;28;20208;-93
2021/08/15 02:36:29;;;;;;;18.17;16.20;;;27.30;99.90;;;;;;5060698;28;20267;-91
2021/08/15 02:39:01;;;;;;;16.00;14.47;;;27.20;99.90;;;;;;5062836;28;20643;-92
2021/08/15 02:41:35;;;;;;;16.93;15.17;;;27.00;99.90;;;;;;5073731;28;20189;-92
2021/08/15 02:44:06;;;;;;;19.97;15.10;;;26.90;99.90;;;;;;5078549;28;20208;-91
2021/08/15 02:46:38;;;;;;;16.10;14.70;;;26.90;99.90;;;;;;5078020;28;20250;-92
2021/08/15 02:49:09;;;;;;;16.80;15.30;;;26.80;99.90;;;;;;5076652;28;20222;-92
2021/08/15 02:51:40;;;;;;;16.30;14.80;;;26.80;99.90;;;;;;5076732;28;20212;-91
2021/08/15 02:54:12;;;;;;;16.87;14.60;;;26.70;99.90;;;;;;5075031;28;20204;-91
2021/08/15 02:56:45;;;;;;;16.13;14.53;;;26.50;99.90;;;;;;5075890;28;20220;-91
2021/08/15 02:59:17;;;;;;;17.30;15.60;;;26.40;99.90;;;;;;5066887;28;20220;-91
2021/08/15 03:01:50;;;;;;;17.43;15.53;;;26.30;99.90;;;;;;5073567;28;20226;-91
2021/08/15 03:04:21;;;;;;;17.07;15.23;;;26.20;99.90;;;;;;5072222;28;20216;-93
2021/08/15 03:06:53;;;;;;;16.53;15.03;;;26.20;99.90;;;;;;5076344;28;20196;-91
2021/08/15 03:09:26;;;;;;;17.50;15.67;;;26.10;99.90;;;;;;5076254;28;20303;-92
2021/08/15 03:12:06;;;;;;;17.03;15.30;;;25.90;99.90;;;;;;5064518;28;20226;-91
2021/08/15 03:14:50;;;;;;;17.87;16.17;;;25.80;99.90;;;;;;5062577;28;20209;-92
2021/08/15 03:17:21;;;;;;;17.40;15.57;;;25.70;99.90;;;;;;5044098;28;20294;-92
2021/08/15 03:19:52;;;;;;;18.10;15.20;;;25.60;99.90;;;;;;5043781;28;20240;-92
2021/08/15 03:22:25;;;;;;;17.63;15.93;;;25.50;99.90;;;;;;5045474;28;20232;-92
2021/08/15 03:24:56;;;;;;;17.30;15.53;;;25.40;99.90;;;;;;5041379;28;20213;-92
2021/08/15 03:27:29;;;;;;;17.53;15.93;;;25.20;99.90;;;;;;5040104;28;20228;-92
2021/08/15 03:30:10;;;;;;;17.67;15.63;;;25.10;99.90;;;;;;5042346;28;20232;-94
2021/08/15 03:32:41;;;;;;;17.73;15.93;;;25.00;99.90;;;;;;5043962;28;20632;-92
2021/08/15 03:35:13;;;;;;;17.97;16.17;;;25.00;99.90;;;;;;5043510;28;20208;-92
2021/08/15 03:37:44;;;;;;;18.20;15.73;;;25.00;99.90;;;;;;5041258;28;20260;-92
2021/08/15 03:40:17;;;;;;;17.57;15.87;;;25.00;99.90;;;;;;5038942;28;20300;-93
2021/08/15 03:42:51;;;;;;;15.93;14.43;;;24.90;99.90;;;;;;5039291;28;20680;-92
2021/08/15 03:45:23;;;;;;;17.77;15.90;;;24.80;99.90;;;;;;5045529;28;20676;-92
2021/08/15 03:47:56;;;;;;;17.60;15.90;;;24.70;99.90;;;;;;5043238;28;20576;-92
2021/08/15 03:50:27;;;;;;;17.47;15.67;;;24.60;99.90;;;;;;5059671;28;20236;-92
2021/08/15 03:52:58;;;;;;;16.73;15.10;;;24.60;99.90;;;;;;5059171;28;20208;-91
2021/08/15 03:55:30;;;;;;;21.73;16.27;;;24.50;99.90;;;;;;5063179;28;20568;-92
2021/08/15 03:58:05;;;;;;;19.07;17.07;;;24.50;99.90;;;;;;5074760;28;20228;-91
2021/08/15 04:00:40;;;;;;;19.23;16.63;;;24.40;99.90;;;;;;5071074;28;20208;-92
2021/08/15 04:03:13;;;;;;;19.97;16.37;;;24.40;99.90;;;;;;5054256;28;20214;-90
2021/08/15 04:05:47;;;;;;;18.60;16.63;;;24.30;99.90;;;;;;5068269;28;20203;-92
2021/08/15 04:08:19;;;;;;;18.07;16.23;;;24.30;99.90;;;;;;5070854;28;20256;-91
2021/08/15 04:11:00;;;;;;;18.40;15.87;;;24.20;99.90;;;;;;5072660;28;20227;-93
2021/08/15 04:13:33;;;;;;;17.87;16.10;;;24.20;99.90;;;;;;5058785;28;20246;-90
2021/08/15 04:16:05;;;;;;;18.00;16.17;;;24.10;99.90;;;;;;5065869;28;20219;-92
2021/08/15 04:21:20;;;;;;;20.00;17.60;;;24.00;99.90;;;;;;5054109;28;20235;-92
2021/08/15 04:26:27;;;;;;;21.93;19.10;;;23.90;99.90;;;;;;5424976;22;20222;-92
2021/08/15 04:29:13;;;;;;;20.30;18.13;;;23.90;99.90;;;;;;5056936;28;20196;-93
2021/08/15 04:31:47;;;;;;;24.53;18.57;;;23.80;99.90;;;;;;5082902;22;20362;-92
2021/08/15 04:34:18;;;;;;;22.00;19.57;;;23.70;99.90;;;;;;5727551;22;20244;-92
2021/08/15 04:36:54;;;;;;;20.67;18.57;;;23.70;99.90;;;;;;5056526;28;20224;-90
2021/08/15 04:39:26;;;;;;;22.00;19.57;;;23.60;99.90;;;;;;5052548;28;20215;-93
2021/08/15 04:42:08;;;;;;;22.87;20.50;;;23.60;99.90;;;;;;5051376;28;20213;-93
2021/08/15 04:44:49;;;;;;;22.60;19.83;;;23.60;99.90;;;;;;5052084;28;20192;-92
2021/08/15 04:47:25;;;;;;;23.40;21.00;;;23.50;99.90;;;;;;5051745;28;20238;-92
2021/08/15 04:49:58;;;;;;;22.23;19.77;;;23.50;99.90;;;;;;5051757;28;20266;-91
2021/08/15 04:52:33;;;;;;;19.90;17.93;;;23.40;99.90;;;;;;5037632;28;20272;-90
2021/08/15 04:55:07;;;;;;;19.07;17.27;;;23.40;99.90;;;;;;5022187;28;20261;-91
2021/08/15 04:57:42;;;;;;;19.70;17.63;;;23.40;99.90;;;;;;5033649;28;20348;-91
2021/08/15 05:00:19;;;;;;;19.97;17.97;;;23.30;99.90;;;;;;5034946;28;20221;-92
2021/08/15 05:02:57;;;;;;;18.50;16.53;;;23.30;99.90;;;;;;5031556;28;20240;-92
2021/08/15 05:05:29;;;;;;;19.67;16.83;;;23.30;99.90;;;;;;5038709;28;20190;-92
2021/08/15 05:08:01;;;;;;;20.00;17.90;;;23.20;99.90;;;;;;5040775;28;20745;-91
2021/08/15 05:10:34;;;;;;;19.77;17.63;;;23.20;99.90;;;;;;5040184;28;20202;-91
2021/08/15 05:13:06;;;;;;;20.53;16.83;;;23.10;99.90;;;;;;5038974;28;20213;-91
2021/08/15 05:15:47;;;;;;;20.10;17.50;;;23.00;99.90;;;;;;5039283;28;20186;-93
2021/08/15 05:18:18;;;;;;;21.17;17.83;;;23.00;99.90;;;;;;5004493;28;20238;-91
2021/08/15 05:20:54;;;;;;;26.77;19.10;;;22.90;99.90;;;;;;5034003;28;20216;-92
2021/08/15 05:23:30;;;;;;;19.37;17.27;;;22.80;99.90;;;;;;5034963;28;20232;-93
2021/08/15 05:26:11;;;;;;;18.30;16.27;;;22.70;99.90;;;;;;5030873;28;20279;-92
2021/08/15 05:28:44;;;;;;;17.93;16.03;;;22.70;99.90;;;;;;5299849;22;20237;-92
2021/08/15 05:31:19;;;;;;;17.60;15.70;;;22.60;99.90;;;;;;5054412;28;20216;-93
2021/08/15 05:33:52;;;;;;;17.87;14.73;;;22.60;99.90;;;;;;5053650;28;20199;-92
2021/08/15 05:36:24;;;;;;;17.50;15.77;;;22.60;99.90;;;;;;5048381;28;20289;-93
2021/08/15 05:41:41;;;;;;;17.30;15.60;;;22.50;99.90;;;;;;5541556;22;20263;-92
2021/08/15 05:44:15;;;;;;;17.47;15.80;;;22.50;99.90;;;;;;5043522;28;20255;-92
2021/08/15 05:46:55;;;;;;;18.80;15.93;;;22.40;99.90;;;;;;5043085;28;20581;-92
2021/08/15 05:49:28;;;;;;;17.63;15.77;;;22.40;99.90;;;;;;5043448;28;20204;-92
2021/08/15 05:52:09;;;;;;;17.47;14.97;;;22.40;99.90;;;;;;5041442;28;20668;-92
2021/08/15 05:54:44;;;;;;;16.70;15.00;;;22.40;99.90;;;;;;5045828;28;20212;-92
2021/08/15 05:57:16;;;;;;;16.77;14.87;;;22.40;99.90;;;;;;5044782;28;20217;-92
2021/08/15 05:59:50;;;;;;;16.90;15.30;;;22.30;99.90;;;;;;5044864;28;20200;-90
2021/08/15 06:02:33;;;;;;;20.33;15.87;;;22.30;99.90;;;;;;5043517;28;20213;-93
2021/08/15 06:05:07;;;;;;;17.27;15.43;;;22.30;99.90;;;;;;5041532;28;20209;-91
2021/08/15 06:07:42;;;;;;;17.30;15.57;;;22.20;99.90;;;;;;5039363;28;20209;-91
2021/08/15 06:10:14;;;;;;;16.50;14.90;;;22.20;99.90;;;;;;5041000;28;20231;-91
2021/08/15 06:12:45;;;;;;;17.60;15.83;;;22.10;99.90;;;;;;5040564;28;20205;-93
2021/08/15 06:15:17;;;;;;;18.43;15.90;;;22.10;99.90;;;;;;5040574;28;20213;-93
2021/08/15 06:17:53;;;;;;;17.07;15.30;;;22.10;99.90;;;;;;5040039;28;20228;-93
2021/08/15 06:20:29;;;;;;;17.13;15.27;;;22.10;99.90;;;;;;5044242;28;20582;-92
2021/08/15 06:23:03;;;;;;;17.83;15.80;;;22.00;99.90;;;;;;5050298;28;20208;-92
2021/08/15 06:25:35;;;;;;;17.93;16.13;;;21.90;99.90;;;;;;5048809;28;20223;-92
2021/08/15 06:28:07;;;;;;;18.07;15.67;;;21.90;99.90;;;;;;5040587;28;20208;-91
2021/08/15 06:30:39;;;;;;;17.87;14.90;;;21.90;99.90;;;;;;5030982;28;20244;-91
2021/08/15 06:33:12;;;;;;;19.50;16.13;;;21.90;99.90;;;;;;5047221;28;20209;-91
2021/08/15 06:35:43;;;;;;;17.50;15.67;;;21.80;99.90;;;;;;5048133;28;20204;-93
2021/08/15 06:38:14;;;;;;;17.97;15.50;;;21.80;99.90;;;;;;5042271;28;20260;-93
2021/08/15 06:40:45;;;;;;;17.13;15.47;;;21.70;99.90;;;;;;5040317;28;20335;-93
2021/08/15 06:43:17;;;;;;;17.53;15.63;;;21.70;99.90;;;;;;5040959;28;20263;-93
2021/08/15 06:45:49;;;;;;;18.47;15.73;;;21.70;99.90;;;;;;5039426;28;20216;-92
2021/08/15 06:48:22;;;;;;;17.47;15.60;;;21.70;99.90;;;;;;5039455;28;20212;-92
2021/08/15 06:50:57;;;;;;;17.00;15.40;;;21.70;99.90;;;;;;5038967;28;20589;-94
2021/08/15 06:53:29;;;;;;;16.13;14.37;;;21.70;99.90;;;;;;5043831;28;20660;-93
2021/08/15 06:56:01;;;;;;;17.93;16.03;;;21.60;99.90;;;;;;5021163;28;20272;-92
2021/08/15 06:58:33;;;;;;;16.67;15.03;;;21.60;99.90;;;;;;5038777;28;20316;-93
2021/08/15 07:01:05;;;;;;;17.13;15.33;;;21.50;99.90;;;;;;5045876;28;20216;-90
2021/08/15 07:03:40;;;;;;;17.43;15.43;;;21.50;99.90;;;;;;5049606;28;20193;-91
2021/08/15 07:06:12;;;;;;;16.63;14.67;;;21.50;99.90;;;;;;5049998;28;20219;-91
2021/08/15 07:08:45;;;;;;;18.27;14.53;;;21.40;99.90;;;;;;5046821;28;20200;-89
2021/08/15 07:11:16;;;;;;;17.80;15.40;;;21.40;99.90;;;;;;5028831;28;20209;-89
2021/08/15 07:13:47;;;;;;;17.40;15.63;;;21.40;99.90;;;;;;5030200;28;20201;-89
2021/08/15 07:16:19;;;;;;;17.67;15.80;;;21.30;99.90;;;;;;5028615;28;20210;-90
2021/08/15 07:18:52;;;;;;;16.10;14.63;;;21.30;99.90;;;;;;5028274;28;20319;-90
2021/08/15 07:21:23;;;;;;;19.13;15.97;;;21.30;99.90;;;;;;5022945;28;20263;-90
2021/08/15 07:23:55;;;;;;;18.73;15.93;;;21.30;99.90;;;;;;5040263;28;20252;-91
2021/08/15 07:26:28;;;;;;;18.17;16.27;;;21.20;99.90;;;;;;5052321;28;20209;-93
2021/08/15 07:29:01;;;;;;;20.93;16.10;;;21.20;99.90;;;;;;5056477;28;20243;-93
2021/08/15 07:31:33;;;;;;;17.97;15.80;;;21.10;99.90;;;;;;5037982;28;20185;-92
2021/08/15 07:34:07;;;;;;;16.97;15.30;;;21.10;99.90;;;;;;5057078;28;20197;-93
2021/08/15 07:36:41;;;;;;;17.57;15.73;;;21.10;99.90;;;;;;5054901;28;20216;-93
2021/08/15 07:39:12;;;;;;;17.03;15.30;;;21.10;99.90;;;;;;5046252;28;20233;-93
2021/08/15 07:41:44;;;;;;;17.67;15.83;;;21.10;99.90;;;;;;5045837;28;20256;-91
2021/08/15 07:44:15;;;;;;;18.13;15.67;;;21.10;99.90;;;;;;5039530;28;20235;-92
2021/08/15 07:46:46;;;;;;;19.73;15.43;;;21.00;99.90;;;;;;5038899;28;20215;-91
2021/08/15 07:49:21;;;;;;;17.87;16.07;;;21.00;99.90;;;;;;5041502;28;20296;-92
2021/08/15 07:51:52;;;;;;;16.80;15.17;;;20.90;99.90;;;;;;5045443;28;20737;-91
2021/08/15 07:54:24;;;;;;;18.60;15.53;;;20.90;99.90;;;;;;5050212;28;20205;-91
2021/08/15 07:56:55;;;;;;;18.07;16.17;;;20.90;99.90;;;;;;5038029;28;20639;-92
2021/08/15 07:59:29;;;;;;;16.13;14.47;;;20.90;99.90;;;;;;5037669;28;20239;-91
2021/08/15 08:02:00;;;;;;;16.20;13.97;;;20.90;99.90;;;;;;5020160;28;20201;-91
2021/08/15 08:04:37;;;;;;;16.17;14.47;;;20.90;99.90;;;;;;5038110;28;20283;-91
2021/08/15 08:07:09;;;;;;;17.73;14.53;;;21.00;99.90;;;;;;5086053;22;20326;-92
2021/08/15 08:09:41;;;;;;;16.97;14.30;;;20.90;99.90;;;;;;5056868;28;20666;-91
2021/08/15 08:12:12;;;;;;;16.63;12.90;;;20.90;99.90;;;;;;5055731;28;20208;-91
2021/08/15 08:14:43;;;;;;;13.73;12.37;;;21.00;99.90;;;;;;5057288;28;20263;-92
2021/08/15 08:17:16;;;;;;;13.67;12.23;;;20.90;99.90;;;;;;5021570;28;20212;-92
2021/08/15 08:19:49;;;;;;;14.33;12.30;;;20.90;99.90;;;;;;5057039;28;20228;-91
2021/08/15 08:22:21;;;;;;;14.87;11.77;;;21.00;99.90;;;;;;5056312;28;20235;-92
2021/08/15 08:24:52;;;;;;;13.07;11.70;;;20.90;99.90;;;;;;5057685;28;20208;-92
2021/08/15 08:27:25;;;;;;;14.53;12.03;;;20.90;99.90;;;;;;5057291;28;20220;-90
2021/08/15 08:29:56;;;;;;;13.20;11.57;;;20.90;99.90;;;;;;5056658;28;20236;-92
2021/08/15 08:32:27;;;;;;;15.47;11.27;;;20.80;99.90;;;;;;5057678;28;20224;-92
2021/08/15 08:35:01;;;;;;;12.97;11.00;;;20.80;99.90;;;;;;5056598;28;20304;-92
2021/08/15 08:37:33;;;;;;;12.30;10.97;;;20.80;99.90;;;;;;5056899;28;20246;-91
2021/08/15 08:40:06;;;;;;;12.43;10.50;;;20.70;99.90;;;;;;5056483;28;20245;-91
2021/08/15 08:42:38;;;;;;;12.53;9.90;;;20.80;99.90;;;;;;5056637;28;20299;-92
2021/08/15 08:45:12;;;;;;;12.20;10.13;;;20.80;99.90;;;;;;5052810;28;20625;-91
2021/08/15 08:47:44;;;;;;;12.70;9.10;;;20.70;99.90;;;;;;5036495;28;20240;-91
2021/08/15 08:50:18;;;;;;;10.17;8.67;;;20.70;99.90;;;;;;5034557;28;20239;-92
2021/08/15 08:52:51;;;;;;;13.27;8.77;;;20.60;99.90;;;;;;5037441;28;20215;-91
2021/08/15 08:55:23;;;;;;;13.70;9.43;;;20.70;99.90;;;;;;5036576;28;20220;-91
2021/08/15 08:57:55;;;;;;;11.43;9.70;;;20.70;99.90;;;;;;5037199;28;20642;-92
2021/08/15 09:00:27;;;;;;;10.53;8.50;;;20.60;99.90;;;;;;5036886;28;20240;-91
2021/08/15 09:03:00;;;;;;;10.43;7.90;;;20.50;99.90;;;;;;5036416;28;20205;-92
2021/08/15 09:05:36;;;;;;;9.47;8.23;;;20.50;99.90;;;;;;5048162;28;20242;-91
2021/08/15 09:08:09;;;;;;;8.97;7.90;;;20.50;99.90;;;;;;5056182;28;20216;-91
2021/08/15 09:10:40;;;;;;;10.97;7.37;;;20.40;99.90;;;;;;5039754;28;20240;-91
2021/08/15 09:13:15;;;;;;;10.33;7.50;;;20.40;99.90;;;;;;5040153;28;20215;-92
2021/08/15 09:15:57;;;;;;;8.17;7.33;;;20.30;99.90;;;;;;5058756;28;20247;-92
2021/08/15 09:18:31;;;;;;;10.40;7.10;;;20.20;99.90;;;;;;5058790;28;20216;-92
2021/08/15 09:21:05;;;;;;;10.40;7.13;;;20.20;99.90;;;;;;5042591;28;20302;-91
2021/08/15 09:23:37;;;;;;;9.67;7.03;;;20.10;99.90;;;;;;5060052;28;20205;-92
2021/08/15 09:26:14;;;;;;;9.80;7.30;;;20.10;99.90;;;;;;5059365;28;20208;-92
2021/08/15 09:28:46;;;;;;;10.47;7.33;;;20.00;99.90;;;;;;5060769;28;20269;-91
2021/08/15 09:31:31;;;;;;;11.10;6.83;;;20.00;99.90;;;;;;5059735;28;20204;-91
2021/08/15 09:34:04;;;;;;;7.10;6.40;;;20.00;99.90;;;;;;5061347;28;20211;-92
2021/08/15 09:36:43;;;;;;;8.27;6.60;;;20.00;99.90;;;;;;5073845;28;20188;-92
2021/08/15 09:39:14;;;;;;;11.33;6.70;;;20.00;99.90;;;;;;5076142;28;20207;-89
2021/08/15 09:41:53;;;;;;;7.77;6.30;;;20.00;99.90;;;;;;5077354;28;20258;-90
2021/08/15 09:44:27;;;;;;;7.77;6.10;;;19.90;99.90;;;;;;5077203;28;20330;-91
2021/08/15 09:47:06;;;;;;;11.10;7.13;;;19.80;99.90;;;;;;5061109;28;20195;-89
2021/08/15 09:49:42;;;;;;;7.43;6.63;;;19.70;99.90;;;;;;5073723;28;20203;-91
2021/08/15 09:52:16;;;;;;;7.80;6.70;;;19.60;99.90;;;;;;5064183;28;20230;-91
2021/08/15 09:54:55;;;;;;;8.00;6.40;;;19.60;99.90;;;;;;5076050;28;20204;-90
2021/08/15 09:57:32;;;;;;;9.87;6.50;;;19.50;99.90;;;;;;5074062;28;20211;-89
2021/08/15 10:00:08;;;;;;;8.37;6.47;;;19.40;99.90;;;;;;5075768;28;20790;-87
2021/08/15 10:02:43;;;;;;;7.87;6.40;;;19.30;99.90;;;;;;5050360;28;20214;-90
2021/08/15 10:05:14;;;;;;;9.20;6.80;;;19.20;99.90;;;;;;5062927;28;20234;-91
2021/08/15 10:07:48;;;;;;;8.00;5.90;;;19.40;99.90;;;;;;5060964;28;20771;-91
2021/08/15 10:10:20;;;;;;;10.13;6.60;;;19.40;99.90;;;;;;5060260;28;20204;-91
2021/08/15 10:12:52;;;;;;;7.17;6.27;;;19.40;99.90;;;;;;5043054;28;20204;-91
2021/08/15 10:15:24;;;;;;;8.50;6.37;;;19.30;99.90;;;;;;5061052;28;20235;-92
2021/08/15 10:17:58;;;;;;;10.13;6.40;;;19.30;99.90;;;;;;5060069;28;20316;-92
2021/08/15 10:20:33;;;;;;;7.43;6.17;;;19.20;99.90;;;;;;5041642;28;20224;-91
2021/08/15 10:23:10;;;;;;;9.03;7.30;;;19.20;99.90;;;;;;5059377;28;20573;-90
2021/08/15 10:25:43;;;;;;;8.87;7.10;;;19.20;99.90;;;;;;5042171;28;20208;-92
2021/08/15 10:28:43;;;;;;;7.67;6.43;;;19.20;99.90;;;;;;5058658;28;20232;-91
2021/08/15 10:31:14;;;;;;;10.43;7.00;;;19.20;99.90;;;;;;5040917;28;20212;-91
2021/08/15 10:33:55;;;;;;;9.80;6.40;;;19.20;99.90;;;;;;5058856;28;20239;-92
2021/08/15 10:36:31;;;;;;;7.40;6.33;;;19.10;99.90;;;;;;5060760;28;20211;-91
2021/08/15 10:39:25;;;;;;;9.27;6.50;;;19.00;99.90;;;;;;5061330;28;20224;-91
2021/08/15 10:42:00;;;;;;;10.27;6.53;;;19.00;99.90;;;;;;5060082;28;20267;-91
2021/08/15 10:44:51;;;;;;;9.20;6.47;;;18.90;99.90;;;;;;5040889;28;20213;-91
2021/08/15 10:47:23;;;;;;;8.13;6.03;;;18.90;99.90;;;;;;5046302;28;20212;-91
2021/08/15 10:50:02;;;;;;;11.23;6.27;;;18.90;99.90;;;;;;5104782;22;20252;-90
2021/08/15 10:52:41;;;;;;;9.63;6.37;;;18.90;99.90;;;;;;5040348;28;20213;-90
2021/08/15 10:55:43;;;;;;;7.70;6.33;;;18.90;99.90;;;;;;5043698;28;20220;-90
2021/08/15 10:58:36;;;;;;;9.80;5.97;;;18.80;99.90;;;;;;5044584;28;20243;-90
2021/08/15 11:01:08;;;;;;;7.57;5.50;;;18.80;99.90;;;;;;5037676;28;20237;-92
2021/08/15 11:04:01;;;;;;;8.90;6.07;;;18.80;99.90;;;;;;5038807;28;20201;-90
2021/08/15 11:06:52;;;;;;;8.70;5.53;;;18.80;99.90;;;;;;5038686;28;20259;-90
2021/08/15 11:09:23;;;;;;;10.60;5.80;;;18.70;99.90;;;;;;5022010;28;20304;-89
2021/08/15 11:12:16;;;;;;;8.07;5.40;;;18.80;99.90;;;;;;5020574;28;20248;-90
2021/08/15 11:15:10;;;;;;;6.30;4.77;;;18.70;99.90;;;;;;5037935;28;20241;-90
2021/08/15 11:17:42;;;;;;;7.37;4.60;;;18.70;99.90;;;;;;5037823;28;20268;-91
2021/08/15 11:20:36;;;;;;;7.40;5.23;;;18.70;99.90;;;;;;5037489;28;20300;-91
2021/08/15 11:23:10;;;;;;;10.37;5.17;;;18.70;99.90;;;;;;5038010;28;20228;-90
2021/08/15 11:25:41;;;;;;;9.17;5.30;;;18.60;99.90;;;;;;5041040;28;20205;-92
2021/08/15 11:28:15;;;;;;;7.40;4.90;;;18.60;99.90;;;;;;5038201;28;20216;-91
2021/08/15 11:30:54;;;;;;;9.07;5.53;;;18.60;99.90;;;;;;5037364;28;20200;-91
2021/08/15 11:33:26;;;;;;;6.43;4.87;;;18.60;99.90;;;;;;5037648;28;20215;-90
2021/08/15 11:35:58;;;;;;;9.63;5.50;;;18.60;99.90;;;;;;5037519;28;20250;-91
2021/08/15 11:38:30;;;;;;;9.30;5.20;;;18.60;99.90;;;;;;5039154;28;20228;-91
2021/08/15 11:41:03;;;;;;;8.30;4.90;;;18.50;99.90;;;;;;5021109;28;20260;-91
2021/08/15 11:43:40;;;;;;;6.33;4.73;;;18.50;99.90;;;;;;5039010;28;20268;-91
2021/08/15 11:46:12;;;;;;;6.87;4.90;;;18.50;99.90;;;;;;5039233;28;20308;-91
2021/08/15 11:48:45;;;;;;;7.20;4.93;;;18.50;99.90;;;;;;5039356;28;20208;-91
2021/08/15 11:51:16;;;;;;;6.83;5.27;;;18.50;99.90;;;;;;5039260;28;20224;-90
2021/08/15 11:53:50;;;;;;;6.73;5.13;;;18.40;99.90;;;;;;5019144;28;20240;-90
2021/08/15 11:56:23;;;;;;;7.93;4.90;;;18.50;99.90;;;;;;5000553;28;20293;-90
2021/08/15 11:58:57;;;;;;;9.40;5.20;;;18.40;99.90;;;;;;5017524;28;20243;-90
2021/08/15 12:01:29;;;;;;;7.47;5.40;;;18.40;99.90;;;;;;5016798;28;20614;-91
2021/08/15 12:04:02;;;;;;;6.07;5.03;;;18.30;99.90;;;;;;5019125;28;20589;-90
2021/08/15 12:06:43;;;;;;;12.03;5.07;;;18.30;99.90;;;;;;5037352;28;20637;-91
2021/08/15 12:09:28;;;;;;;11.47;5.00;;;18.20;99.90;;;;;;5037630;28;20296;-91
2021/08/15 12:12:04;;;;;;;8.90;5.37;;;18.20;99.90;;;;;;5021029;28;20278;-91
2021/08/15 12:14:38;;;;;;;9.27;5.30;;;18.20;99.90;;;;;;5039036;28;20271;-91
2021/08/15 12:17:09;;;;;;;7.17;5.80;;;18.20;99.90;;;;;;5037637;28;20204;-91
2021/08/15 12:19:43;;;;;;;7.23;5.20;;;18.20;99.90;;;;;;5037903;28;20205;-90
2021/08/15 12:22:20;;;;;;;5.90;4.70;;;18.10;99.90;;;;;;5030769;28;20233;-91
2021/08/15 12:25:00;;;;;;;8.37;4.87;;;18.10;99.90;;;;;;5053479;28;20217;-91
2021/08/15 12:27:32;;;;;;;6.13;4.97;;;18.10;99.90;;;;;;5052738;28;20284;-91
2021/08/15 12:30:07;;;;;;;8.07;4.67;;;18.00;99.90;;;;;;5052761;28;20236;-91
2021/08/15 12:32:38;;;;;;;7.83;4.93;;;18.10;99.90;;;;;;5050576;28;20195;-91
2021/08/15 12:35:10;;;;;;;8.23;4.87;;;18.00;99.90;;;;;;5038870;28;20288;-91
2021/08/15 12:37:44;;;;;;;9.97;5.77;;;18.00;99.90;;;;;;5037376;28;20208;-91
2021/08/15 12:40:16;;;;;;;9.30;5.30;;;18.10;99.90;;;;;;5035845;28;20673;-92
2021/08/15 12:42:59;;;;;;;10.33;5.10;;;18.00;99.90;;;;;;5036616;28;20232;-91
2021/08/15 12:45:37;;;;;;;10.63;5.40;;;18.00;99.90;;;;;;5036388;28;20292;-91
2021/08/15 12:48:10;;;;;;;12.67;5.60;;;17.90;99.90;;;;;;5036425;28;20200;-90
2021/08/15 12:50:45;;;;;;;7.67;5.07;;;17.80;99.90;;;;;;5035525;28;20220;-91
2021/08/15 12:53:21;;;;;;;10.23;5.27;;;17.90;99.90;;;;;;5036641;28;20684;-91
2021/08/15 12:55:53;;;;;;;9.73;4.87;;;17.80;99.90;;;;;;5036320;28;20205;-90
2021/08/15 12:58:26;;;;;;;8.33;4.63;;;17.80;99.90;;;;;;5036858;28;20291;-91
2021/08/15 13:01:02;;;;;;;7.40;4.50;;;17.80;99.90;;;;;;5018990;28;20220;-90
2021/08/15 13:03:34;;;;;;;7.40;4.97;;;17.70;99.90;;;;;;5037667;28;20200;-90
2021/08/15 13:06:09;;;;;;;8.07;4.90;;;17.70;99.90;;;;;;5036913;28;20324;-91
2021/08/15 13:08:41;;;;;;;11.57;4.50;;;17.70;99.90;;;;;;5024788;28;20289;-90
2021/08/15 13:11:13;;;;;;;9.93;4.80;;;17.60;99.90;;;;;;5015905;28;20337;-90
2021/08/15 13:13:44;;;;;;;9.60;4.27;;;17.60;99.90;;;;;;4999764;28;20572;-90
2021/08/15 13:16:17;;;;;;;7.63;4.43;;;17.60;99.90;;;;;;5030061;28;20232;-90
2021/08/15 13:18:49;;;;;;;6.00;4.30;;;17.50;99.90;;;;;;5040786;28;20724;-90
2021/08/15 13:21:21;;;;;;;7.40;4.27;;;17.50;99.90;;;;;;5029669;28;20241;-91
2021/08/15 13:23:52;;;;;;;6.60;3.93;;;17.50;99.90;;;;;;5025439;28;20209;-91
2021/08/15 13:26:24;;;;;;;7.37;3.97;;;17.50;99.90;;;;;;5039917;28;20225;-91
2021/08/15 13:28:55;;;;;;;7.03;4.03;;;17.50;99.90;;;;;;5040021;28;20208;-90
2021/08/15 13:31:29;;;;;;;6.43;3.50;;;17.50;99.90;;;;;;5039436;28;20205;-91
2021/08/15 13:34:00;;;;;;;7.70;4.00;;;17.50;99.90;;;;;;5039757;28;20276;-90
2021/08/15 13:36:33;;;;;;;7.60;3.97;;;17.50;99.90;;;;;;5041031;28;20279;-90
2021/08/15 13:39:04;;;;;;;6.77;4.23;;;17.50;99.90;;;;;;5023059;28;20216;-90
2021/08/15 13:41:36;;;;;;;5.77;4.03;;;17.50;99.90;;;;;;5038841;28;20225;-91
2021/08/15 13:44:08;;;;;;;6.77;4.13;;;17.50;99.90;;;;;;5040327;28;20300;-90